createdAt,value
2023-05-05T04:03:07.752Z,15.60
2023-05-05T04:05:36.648Z,15.70
2023-05-05T04:08:05.888Z,15.50
2023-05-05T04:10:34.325Z,15.30
2023-05-05T04:13:04.648Z,15.10
2023-05-05T04:15:33.421Z,15.20
2023-05-05T04:18:01.801Z,15.40
2023-05-05T04:20:31.837Z,15.40
2023-05-05T04:23:00.636Z,15.50
2023-05-05T04:25:29.490Z,15.40
2023-05-05T04:27:57.831Z,15.40
2023-05-05T04:30:26.356Z,15.30
2023-05-05T04:32:54.706Z,15.30
2023-05-05T04:35:23.744Z,15.30
2023-05-05T04:37:54.754Z,15.10
2023-05-05T04:40:23.082Z,15.00
2023-05-05T04:42:51.406Z,14.80
2023-05-05T04:45:19.743Z,14.80
2023-05-05T04:47:48.225Z,15.10
2023-05-05T04:50:16.664Z,14.90
2023-05-05T04:52:45.077Z,14.80
2023-05-05T04:55:14.934Z,14.90
2023-05-05T04:57:43.378Z,14.90
2023-05-05T05:00:13.974Z,14.70
2023-05-05T05:02:42.248Z,14.90
2023-05-05T05:05:11.289Z,15.10
2023-05-05T05:07:39.627Z,15.30
2023-05-05T05:10:09.069Z,15.10
2023-05-05T05:12:39.003Z,14.80
2023-05-05T05:15:08.774Z,14.90
2023-05-05T05:17:37.017Z,14.80
2023-05-05T05:20:05.658Z,15.00
2023-05-05T05:22:34.947Z,15.10
2023-05-05T05:25:03.460Z,15.10
2023-05-05T05:27:33.150Z,15.10
2023-05-05T05:30:03.163Z,15.10
2023-05-05T05:32:31.739Z,15.20
2023-05-05T05:35:00.216Z,15.40
2023-05-05T05:37:31.436Z,15.60
2023-05-05T05:39:59.664Z,15.60
2023-05-05T05:42:28.005Z,15.70
2023-05-05T05:44:57.308Z,15.80
2023-05-05T05:47:28.149Z,15.90
2023-05-05T05:49:56.856Z,15.80
2023-05-05T05:52:25.105Z,15.80
2023-05-05T05:54:54.758Z,15.70
2023-05-05T05:57:25.008Z,15.70
2023-05-05T05:59:54.091Z,15.90
2023-05-05T06:02:22.919Z,15.90
2023-05-05T06:04:53.156Z,16.00
2023-05-05T06:07:22.804Z,16.10
2023-05-05T06:09:51.562Z,16.10
2023-05-05T06:12:20.047Z,16.10
2023-05-05T06:14:48.475Z,16.20
2023-05-05T06:17:17.054Z,16.20
2023-05-05T06:19:45.874Z,16.20
2023-05-05T06:22:15.695Z,16.30
2023-05-05T06:24:45.158Z,16.20
2023-05-05T06:27:13.502Z,16.20
2023-05-05T06:29:42.046Z,16.30
2023-05-05T06:32:12.752Z,16.40
2023-05-05T06:34:41.503Z,16.40
2023-05-05T06:37:09.769Z,16.40
2023-05-05T06:39:39.785Z,16.50
2023-05-05T06:42:08.233Z,16.60
2023-05-05T06:44:37.427Z,16.50
2023-05-05T06:47:05.696Z,16.60
2023-05-05T06:49:34.075Z,16.60
2023-05-05T06:52:02.704Z,16.60
2023-05-05T06:54:31.485Z,16.80
2023-05-05T06:57:02.004Z,16.80
2023-05-05T06:59:30.502Z,16.90
2023-05-05T07:01:58.873Z,17.00
2023-05-05T07:04:27.876Z,17.10
2023-05-05T07:06:58.423Z,17.10
2023-05-05T07:09:26.445Z,17.10
2023-05-05T07:11:55.155Z,17.10
2023-05-05T07:14:25.254Z,17.20
2023-05-05T07:16:53.630Z,17.20
2023-05-05T07:19:22.366Z,17.20
2023-05-05T07:21:52.073Z,17.50
2023-05-05T07:24:20.972Z,17.50
2023-05-05T07:26:49.376Z,17.50
2023-05-05T07:29:17.782Z,17.60
2023-05-05T07:31:47.631Z,17.70
2023-05-05T07:34:16.369Z,17.60
2023-05-05T07:36:44.941Z,17.80
2023-05-05T07:39:15.364Z,17.90
2023-05-05T07:41:43.752Z,17.80
2023-05-05T07:44:12.228Z,17.90
2023-05-05T07:46:41.971Z,18.00
2023-05-05T07:49:11.879Z,18.00
2023-05-05T07:51:40.488Z,18.00
2023-05-05T07:54:08.770Z,18.10
2023-05-05T07:56:37.330Z,18.10
2023-05-05T07:59:05.950Z,18.30
2023-05-05T08:01:35.041Z,18.30
2023-05-05T08:04:03.605Z,18.50
2023-05-05T08:06:34.060Z,18.60
2023-05-05T08:09:02.528Z,18.70
2023-05-05T08:11:30.965Z,18.80
2023-05-05T08:13:59.883Z,18.80
2023-05-05T08:16:28.690Z,19.00
2023-05-05T08:18:57.056Z,19.10
2023-05-05T08:21:25.228Z,19.20
2023-05-05T08:23:55.478Z,19.30
2023-05-05T08:26:24.036Z,19.30
2023-05-05T08:28:55.470Z,19.00
2023-05-05T08:31:24.027Z,19.10
2023-05-05T08:33:52.427Z,19.30
2023-05-05T08:36:22.139Z,19.50
2023-05-05T08:38:50.468Z,19.40
2023-05-05T08:41:20.853Z,19.50
2023-05-05T08:43:50.600Z,19.60
2023-05-05T08:46:19.336Z,19.40
2023-05-05T08:48:48.002Z,19.50
2023-05-05T08:51:19.607Z,19.50
2023-05-05T08:53:53.605Z,19.80
2023-05-05T08:56:23.707Z,19.80
2023-05-05T08:58:53.014Z,20.10
2023-05-05T09:01:22.549Z,20.50
2023-05-05T09:03:51.155Z,20.60
2023-05-05T09:06:22.266Z,20.90
2023-05-05T09:08:50.678Z,20.60
2023-05-05T09:11:19.117Z,20.70
2023-05-05T09:13:49.803Z,20.40
2023-05-05T09:16:18.318Z,20.90
2023-05-05T09:18:47.318Z,21.20
2023-05-05T09:21:22.877Z,21.20
2023-05-05T09:24:09.450Z,21.30
2023-05-05T09:26:38.908Z,21.50
2023-05-05T09:29:09.791Z,21.40
2023-05-05T09:31:40.237Z,21.70
2023-05-05T09:34:18.249Z,21.80
2023-05-05T09:36:49.309Z,21.90
2023-05-05T09:39:19.831Z,22.10
2023-05-05T09:41:48.030Z,22.30
2023-05-05T09:44:17.899Z,22.40
2023-05-05T09:46:52.574Z,22.30
2023-05-05T09:49:25.679Z,22.20
2023-05-05T09:51:54.210Z,22.50
2023-05-05T09:54:26.926Z,22.60
2023-05-05T09:56:56.472Z,22.60
2023-05-05T09:59:26.410Z,23.00
2023-05-05T10:02:11.979Z,23.00
2023-05-05T10:04:40.730Z,23.20
2023-05-05T10:07:09.223Z,22.90
2023-05-05T10:09:37.406Z,23.30
2023-05-05T10:12:06.915Z,23.10
2023-05-05T10:14:37.820Z,22.60
2023-05-05T10:17:06.140Z,22.30
2023-05-05T10:19:36.661Z,23.10
2023-05-05T10:22:08.727Z,23.20
2023-05-05T10:24:41.164Z,23.80
2023-05-05T10:27:14.573Z,24.40
2023-05-05T10:29:49.920Z,24.20
2023-05-05T10:32:51.478Z,23.60
2023-05-05T10:35:14.307Z,23.60
2023-05-05T10:37:43.596Z,23.70
2023-05-05T10:40:12.522Z,23.70
2023-05-05T10:42:42.018Z,23.90
2023-05-05T10:45:12.467Z,23.30
2023-05-05T10:47:41.261Z,23.70
2023-05-05T10:50:16.623Z,23.80
2023-05-05T10:52:53.740Z,23.50
2023-05-05T10:55:27.010Z,22.90
2023-05-05T10:57:56.137Z,23.80
2023-05-05T11:00:54.701Z,24.00
2023-05-05T11:03:24.297Z,23.70
2023-05-05T11:06:14.323Z,23.90
2023-05-05T11:08:43.876Z,24.40
2023-05-05T11:11:14.080Z,23.70
2023-05-05T11:13:42.952Z,24.10
2023-05-05T11:16:48.223Z,23.80
2023-05-05T11:19:46.037Z,23.50
2023-05-05T11:22:15.533Z,24.00
2023-05-05T11:24:44.918Z,23.90
2023-05-05T11:27:13.402Z,24.70
2023-05-05T11:30:07.981Z,24.50
2023-05-05T11:32:38.715Z,24.50
2023-05-05T11:35:08.103Z,23.70
2023-05-05T11:37:36.820Z,24.50
2023-05-05T11:40:13.143Z,24.40
2023-05-05T11:42:41.668Z,24.30
2023-05-05T11:45:22.608Z,24.20
2023-05-05T11:47:52.920Z,24.10
2023-05-05T11:50:23.485Z,23.50
2023-05-05T11:52:52.293Z,23.50
2023-05-05T11:55:24.316Z,23.50
2023-05-05T11:57:53.321Z,23.40
2023-05-05T12:00:22.151Z,23.40
2023-05-05T12:02:59.695Z,23.60
2023-05-05T12:05:29.770Z,23.30
2023-05-05T12:08:00.305Z,23.00
2023-05-05T12:10:29.104Z,23.10
2023-05-05T12:12:57.861Z,22.80
2023-05-05T12:15:31.125Z,22.90
2023-05-05T12:18:02.986Z,22.60
2023-05-05T12:20:32.755Z,22.60
2023-05-05T12:23:04.053Z,22.60
2023-05-05T12:25:40.022Z,22.60
2023-05-05T12:28:09.231Z,22.20
2023-05-05T12:30:38.038Z,21.90
2023-05-05T12:33:09.261Z,21.80
2023-05-05T12:35:38.398Z,21.50
2023-05-05T12:38:08.893Z,21.20
2023-05-05T12:40:48.282Z,20.80
2023-05-05T12:43:31.853Z,20.50
2023-05-05T12:46:02.070Z,20.40
2023-05-05T12:48:32.157Z,20.10
2023-05-05T12:51:20.902Z,20.00
2023-05-05T12:53:50.531Z,20.10
2023-05-05T12:56:41.542Z,20.00
2023-05-05T12:59:11.244Z,19.90
2023-05-05T13:01:50.207Z,19.70
2023-05-05T13:04:21.765Z,19.70
2023-05-05T13:06:54.046Z,19.30
2023-05-05T13:09:26.610Z,19.20
2023-05-05T13:11:55.164Z,19.20
2023-05-05T13:14:23.915Z,18.40
2023-05-05T13:16:52.412Z,18.90
2023-05-05T13:19:23.840Z,19.30
2023-05-05T13:21:52.930Z,19.20
2023-05-05T13:24:28.756Z,19.30
2023-05-05T13:27:07.239Z,19.10
2023-05-05T13:29:35.755Z,19.10
2023-05-05T13:32:04.677Z,19.40
2023-05-05T13:34:35.026Z,19.50
2023-05-05T13:37:03.358Z,19.60
2023-05-05T13:39:32.385Z,19.60
2023-05-05T13:42:00.927Z,19.50
2023-05-05T13:44:29.696Z,19.60
2023-05-05T13:46:58.236Z,19.40
2023-05-05T13:49:27.399Z,19.30
2023-05-05T13:51:57.663Z,19.50
2023-05-05T13:54:26.394Z,19.50
2023-05-05T13:56:54.886Z,19.60
2023-05-05T13:59:25.904Z,19.50
2023-05-05T14:01:54.720Z,19.60
2023-05-05T14:04:23.237Z,19.50
2023-05-05T14:06:53.331Z,19.30
2023-05-05T14:09:23.971Z,19.40
2023-05-05T14:11:53.673Z,19.20
2023-05-05T14:14:22.560Z,19.40
2023-05-05T14:16:51.406Z,19.50
2023-05-05T14:19:20.012Z,19.60
2023-05-05T14:21:48.808Z,19.60
2023-05-05T14:24:17.544Z,19.50
2023-05-05T14:26:47.851Z,19.40
2023-05-05T14:29:39.927Z,19.30
2023-05-05T14:32:08.077Z,19.30
2023-05-05T14:34:36.728Z,19.30
2023-05-05T14:37:05.231Z,19.60
2023-05-05T14:39:34.098Z,19.70
2023-05-05T14:42:04.501Z,19.70
2023-05-05T14:44:33.103Z,19.60
2023-05-05T14:47:01.740Z,19.70
2023-05-05T14:49:30.235Z,19.80
2023-05-05T14:51:59.058Z,19.80
2023-05-05T14:54:28.771Z,19.80
2023-05-05T14:56:58.628Z,19.70
2023-05-05T14:59:29.088Z,19.80
2023-05-05T15:01:57.880Z,19.90
2023-05-05T15:04:27.198Z,19.90
2023-05-05T15:06:55.701Z,19.90
2023-05-05T15:09:24.782Z,20.00
2023-05-05T15:11:53.586Z,19.90
2023-05-05T15:14:22.359Z,19.20
2023-05-05T15:16:52.125Z,19.20
2023-05-05T15:19:20.640Z,19.20
2023-05-05T15:21:53.536Z,19.40
2023-05-05T15:24:22.308Z,18.80
2023-05-05T15:26:52.685Z,18.20
2023-05-05T15:29:21.736Z,17.30
2023-05-05T15:31:52.197Z,17.00
2023-05-05T15:34:21.001Z,16.90
2023-05-05T15:36:49.587Z,16.40
2023-05-05T15:39:18.258Z,16.30
2023-05-05T15:41:46.802Z,16.00
2023-05-05T15:44:15.224Z,16.30
2023-05-05T15:46:44.032Z,16.30
2023-05-05T15:49:14.006Z,16.10
2023-05-05T15:51:42.496Z,16.00
2023-05-05T15:54:12.325Z,16.10
2023-05-05T15:56:40.839Z,16.40
2023-05-05T15:59:09.171Z,16.50
2023-05-05T16:01:37.477Z,15.70
2023-05-05T16:04:06.730Z,16.00
2023-05-05T16:06:36.688Z,16.00
2023-05-05T16:09:05.669Z,15.80
2023-05-05T16:11:34.414Z,15.70
2023-05-05T16:14:02.710Z,15.50
2023-05-05T16:16:31.117Z,15.40
2023-05-05T16:19:00.033Z,15.20
2023-05-05T16:21:28.913Z,16.10
2023-05-05T16:23:58.893Z,16.40
2023-05-05T16:26:28.047Z,15.60
2023-05-05T16:28:56.436Z,15.50
2023-05-05T16:31:24.943Z,15.80
2023-05-05T16:33:53.669Z,15.60
2023-05-05T16:36:22.655Z,15.30
2023-05-05T16:38:51.697Z,15.20
2023-05-05T16:41:22.554Z,15.30
2023-05-05T16:43:51.211Z,15.30
2023-05-05T16:46:19.649Z,15.30
2023-05-05T16:48:48.219Z,15.40
2023-05-05T16:51:16.631Z,15.30
2023-05-05T16:56:14.301Z,15.40
2023-05-05T16:58:44.342Z,15.80
2023-05-05T17:01:12.934Z,15.70
2023-05-05T17:03:41.613Z,15.60
2023-05-05T17:06:09.997Z,15.40
2023-05-05T17:08:38.219Z,15.40
2023-05-05T17:11:07.371Z,15.40
2023-05-05T17:13:36.466Z,15.10
2023-05-05T17:16:07.194Z,15.50
2023-05-05T17:18:35.916Z,15.70
2023-05-05T17:21:04.423Z,15.90
2023-05-05T17:23:32.794Z,16.20
2023-05-05T17:26:02.972Z,16.60
2023-05-05T17:28:31.867Z,16.90
2023-05-05T17:31:01.571Z,17.00
2023-05-05T17:33:31.642Z,17.10
2023-05-05T17:36:00.496Z,17.00
2023-05-05T17:38:29.218Z,17.10
2023-05-05T17:40:58.888Z,17.20
2023-05-05T17:43:27.308Z,17.20
2023-05-05T17:45:55.947Z,17.00
2023-05-05T17:48:24.382Z,17.10
2023-05-05T17:50:55.065Z,17.20
2023-05-05T17:53:23.716Z,17.20
2023-05-05T17:55:52.529Z,17.00
2023-05-05T17:58:21.050Z,17.10
2023-05-05T18:00:49.660Z,16.90
2023-05-05T18:03:20.294Z,16.30
2023-05-05T18:05:48.612Z,16.00
2023-05-05T18:08:18.615Z,16.20
2023-05-05T18:10:46.997Z,16.50
2023-05-05T18:13:15.555Z,16.30
2023-05-05T18:15:44.065Z,15.90
2023-05-05T18:18:14.112Z,15.90
2023-05-05T18:20:43.991Z,16.00
2023-05-05T18:23:12.902Z,16.20
2023-05-05T18:25:44.173Z,16.20
2023-05-05T18:28:12.657Z,16.10
2023-05-05T18:30:41.037Z,15.70
2023-05-05T18:33:09.396Z,15.70
2023-05-05T18:35:38.146Z,15.60
2023-05-05T18:38:06.998Z,15.80
2023-05-05T18:40:35.530Z,16.00
2023-05-05T18:43:06.008Z,16.10
2023-05-05T18:45:34.664Z,15.70
2023-05-05T18:48:03.144Z,15.70
2023-05-05T18:50:33.362Z,15.70
2023-05-05T18:53:02.495Z,15.50
2023-05-05T18:55:31.347Z,15.50
2023-05-05T18:57:59.758Z,15.50
2023-05-05T19:00:29.670Z,15.90
2023-05-05T19:02:58.175Z,16.10
2023-05-05T19:05:26.523Z,16.20
2023-05-05T19:07:55.075Z,16.20
2023-05-05T19:10:24.042Z,16.30
2023-05-05T19:12:53.136Z,15.90
2023-05-05T19:15:21.529Z,15.70
2023-05-05T19:17:51.422Z,15.30
2023-05-05T19:20:21.234Z,15.20
2023-05-05T19:22:49.921Z,15.50
2023-05-05T19:25:20.025Z,15.50
2023-05-05T19:27:49.043Z,15.30
2023-05-05T19:30:17.560Z,15.20
2023-05-05T19:32:46.143Z,15.00
2023-05-05T19:35:16.833Z,14.70
2023-05-05T19:37:45.256Z,14.70
2023-05-05T19:40:14.559Z,14.70
2023-05-05T19:42:43.098Z,14.90
2023-05-05T19:45:11.715Z,15.10
2023-05-05T19:47:40.597Z,15.30
2023-05-05T19:50:10.986Z,15.30
2023-05-05T19:52:41.982Z,15.10
2023-05-05T19:55:13.391Z,15.10
2023-05-05T19:57:41.968Z,14.90
2023-05-05T20:00:13.983Z,15.20
2023-05-05T20:02:42.737Z,15.40
2023-05-05T20:05:13.925Z,15.30
2023-05-05T20:07:43.966Z,14.80
2023-05-05T20:10:14.518Z,14.40
2023-05-05T20:12:48.511Z,14.10
2023-05-05T20:15:18.921Z,14.00
2023-05-05T20:17:48.085Z,13.70
2023-05-05T20:20:18.821Z,13.60
2023-05-05T20:22:50.362Z,13.50
2023-05-05T20:25:19.309Z,13.40
2023-05-05T20:27:48.046Z,13.30
2023-05-05T20:30:17.192Z,13.40
2023-05-05T20:32:46.475Z,13.70
2023-05-05T20:35:15.066Z,13.80
2023-05-05T20:37:45.398Z,13.40
2023-05-05T20:40:15.760Z,13.10
2023-05-05T20:42:44.266Z,13.00
2023-05-05T20:45:13.830Z,12.90
2023-05-05T20:47:42.594Z,12.90
2023-05-05T20:50:11.651Z,12.90
2023-05-05T20:52:40.490Z,12.90
2023-05-05T20:55:09.938Z,12.90
2023-05-05T20:57:40.011Z,13.00
2023-05-05T21:00:10.544Z,13.30
2023-05-05T21:02:39.298Z,13.60
2023-05-05T21:05:09.377Z,13.90
2023-05-05T21:07:37.765Z,14.00
2023-05-05T21:10:08.197Z,13.90
2023-05-05T21:12:37.020Z,14.00
2023-05-05T21:15:09.104Z,14.30
2023-05-05T21:17:40.274Z,14.10
2023-05-05T21:20:10.163Z,13.80
2023-05-05T21:22:39.028Z,13.60
2023-05-05T21:25:12.371Z,13.20
2023-05-05T21:27:41.220Z,13.00
2023-05-05T21:30:12.976Z,13.20
2023-05-05T21:32:42.460Z,13.00
2023-05-05T21:35:11.289Z,13.00
2023-05-05T21:37:40.487Z,13.20
2023-05-05T21:40:13.785Z,13.30
2023-05-05T21:42:43.594Z,13.20
2023-05-05T21:45:14.853Z,13.00
2023-05-05T21:47:43.579Z,12.90
